You are listening to:
Miami FSS/Misc - Miami, Florida, United States

KMIA 261153Z 02004KT 10SM FEW025 BKN190 OVC220 28/24 A2985 RMK AO2 SLP108 T02830244 10283 20267 53004 $

If stream doesn't start automatically press the play button
If stream stops then reload player then press play